sensor_id;sensor_type;location;lat;lon;timestamp;pressure;altitude;pressure_sealevel;temperature;humidity
45872;BME280;32333;55.844;-3.210;2023-02-14T00:01:44;100784.02;;;0.16;100.00
45872;BME280;32333;55.844;-3.210;2023-02-14T00:04:13;100793.92;;;-0.62;100.00
45872;BME280;32333;55.844;-3.210;2023-02-14T00:06:42;100792.79;;;0.44;100.00
45872;BME280;32333;55.844;-3.210;2023-02-14T00:09:11;100792.47;;;-1.06;100.00
45872;BME280;32333;55.844;-3.210;2023-02-14T00:11:40;100789.49;;;-0.59;100.00
45872;BME280;32333;55.844;-3.210;2023-02-14T00:14:37;100781.74;;;-0.20;100.00
45872;BME280;32333;55.844;-3.210;2023-02-14T00:17:04;100782.73;;;-0.41;100.00
45872;BME280;32333;55.844;-3.210;2023-02-14T00:19:31;100780.00;;;-0.68;100.00
45872;BME280;32333;55.844;-3.210;2023-02-14T00:21:59;100781.91;;;-1.00;100.00
45872;BME280;32333;55.844;-3.210;2023-02-14T00:24:28;100780.86;;;-0.92;100.00
45872;BME280;32333;55.844;-3.210;2023-02-14T00:26:56;100778.13;;;-0.40;100.00
45872;BME280;32333;55.844;-3.210;2023-02-14T00:29:25;100778.53;;;0.18;100.00
45872;BME280;32333;55.844;-3.210;2023-02-14T00:31:54;100777.67;;;-0.54;100.00
45872;BME280;32333;55.844;-3.210;2023-02-14T00:34:23;100778.87;;;-1.60;100.00
45872;BME280;32333;55.844;-3.210;2023-02-14T00:36:51;100773.84;;;0.28;100.00
45872;BME280;32333;55.844;-3.210;2023-02-14T00:39:19;100770.82;;;1.16;100.00
45872;BME280;32333;55.844;-3.210;2023-02-14T00:41:47;100775.26;;;0.44;100.00
45872;BME280;32333;55.844;-3.210;2023-02-14T00:44:36;100779.01;;;-1.26;100.00
45872;BME280;32333;55.844;-3.210;2023-02-14T00:47:04;100776.04;;;-1.44;100.00
45872;BME280;32333;55.844;-3.210;2023-02-14T00:49:32;100777.81;;;-1.31;100.00
45872;BME280;32333;55.844;-3.210;2023-02-14T00:51:59;100773.99;;;-0.81;100.00
45872;BME280;32333;55.844;-3.210;2023-02-14T00:54:27;100766.58;;;0.66;100.00
45872;BME280;32333;55.844;-3.210;2023-02-14T00:56:55;100766.81;;;0.25;100.00
45872;BME280;32333;55.844;-3.210;2023-02-14T00:59:23;100763.92;;;0.85;100.00
45872;BME280;32333;55.844;-3.210;2023-02-14T01:01:51;100764.72;;;1.01;100.00
45872;BME280;32333;55.844;-3.210;2023-02-14T01:04:20;100760.01;;;-0.18;100.00
45872;BME280;32333;55.844;-3.210;2023-02-14T01:06:47;100758.05;;;-0.34;100.00
45872;BME280;32333;55.844;-3.210;2023-02-14T01:09:15;100755.02;;;-0.53;100.00
45872;BME280;32333;55.844;-3.210;2023-02-14T01:11:43;100750.05;;;0.51;100.00
45872;BME280;32333;55.844;-3.210;2023-02-14T01:14:34;100747.41;;;0.40;100.00
45872;BME280;32333;55.844;-3.210;2023-02-14T01:17:04;100744.71;;;0.89;100.00
45872;BME280;32333;55.844;-3.210;2023-02-14T01:19:31;100746.94;;;0.42;100.00
45872;BME280;32333;55.844;-3.210;2023-02-14T01:21:59;100742.32;;;0.06;100.00
45872;BME280;32333;55.844;-3.210;2023-02-14T01:24:27;100743.94;;;-0.37;100.00
45872;BME280;32333;55.844;-3.210;2023-02-14T01:27:24;100741.05;;;0.21;100.00
45872;BME280;32333;55.844;-3.210;2023-02-14T01:29:52;100735.62;;;0.66;100.00
45872;BME280;32333;55.844;-3.210;2023-02-14T01:32:20;100740.02;;;1.75;100.00
45872;BME280;32333;55.844;-3.210;2023-02-14T01:34:48;100735.72;;;0.10;100.00
45872;BME280;32333;55.844;-3.210;2023-02-14T01:37:16;100736.07;;;0.61;100.00
45872;BME280;32333;55.844;-3.210;2023-02-14T01:39:44;100728.80;;;-0.41;100.00
45872;BME280;32333;55.844;-3.210;2023-02-14T01:45:15;100723.99;;;0.70;100.00
45872;BME280;32333;55.844;-3.210;2023-02-14T01:47:45;100726.59;;;0.60;100.00
45872;BME280;32333;55.844;-3.210;2023-02-14T01:50:20;100717.34;;;-0.43;100.00
45872;BME280;32333;55.844;-3.210;2023-02-14T01:52:50;100726.92;;;0.32;100.00
45872;BME280;32333;55.844;-3.210;2023-02-14T01:55:22;100722.06;;;1.00;100.00
45872;BME280;32333;55.844;-3.210;2023-02-14T01:57:55;100718.41;;;1.48;100.00
45872;BME280;32333;55.844;-3.210;2023-02-14T02:00:26;100715.61;;;0.78;100.00
45872;BME280;32333;55.844;-3.210;2023-02-14T02:02:54;100713.50;;;1.84;100.00
45872;BME280;32333;55.844;-3.210;2023-02-14T02:05:23;100710.74;;;1.99;100.00
45872;BME280;32333;55.844;-3.210;2023-02-14T02:07:52;100704.87;;;0.07;100.00
45872;BME280;32333;55.844;-3.210;2023-02-14T02:10:21;100710.43;;;-1.06;100.00
45872;BME280;32333;55.844;-3.210;2023-02-14T02:14:36;100711.30;;;0.05;100.00
45872;BME280;32333;55.844;-3.210;2023-02-14T02:17:16;100709.85;;;1.28;100.00
45872;BME280;32333;55.844;-3.210;2023-02-14T02:20:43;100697.29;;;2.34;100.00
45872;BME280;32333;55.844;-3.210;2023-02-14T02:24:12;100690.88;;;2.12;100.00
45872;BME280;32333;55.844;-3.210;2023-02-14T02:26:59;100697.66;;;0.61;100.00
45872;BME280;32333;55.844;-3.210;2023-02-14T02:30:45;100693.35;;;0.58;100.00
45872;BME280;32333;55.844;-3.210;2023-02-14T02:33:51;100683.14;;;1.67;100.00
45872;BME280;32333;55.844;-3.210;2023-02-14T02:36:36;100682.28;;;1.91;100.00
45872;BME280;32333;55.844;-3.210;2023-02-14T02:39:17;100674.47;;;1.97;100.00
45872;BME280;32333;55.844;-3.210;2023-02-14T02:41:58;100678.11;;;0.38;100.00
45872;BME280;32333;55.844;-3.210;2023-02-14T02:44:43;100672.38;;;0.71;100.00
45872;BME280;32333;55.844;-3.210;2023-02-14T02:47:20;100675.80;;;0.71;100.00
45872;BME280;32333;55.844;-3.210;2023-02-14T02:49:57;100681.57;;;0.73;100.00
45872;BME280;32333;55.844;-3.210;2023-02-14T02:52:36;100685.42;;;1.28;100.00
45872;BME280;32333;55.844;-3.210;2023-02-14T02:58:34;100707.13;;;1.36;100.00
45872;BME280;32333;55.844;-3.210;2023-02-14T03:01:07;100697.66;;;0.92;100.00
45872;BME280;32333;55.844;-3.210;2023-02-14T03:03:37;100697.06;;;0.12;100.00
45872;BME280;32333;55.844;-3.210;2023-02-14T03:06:06;100695.11;;;1.56;100.00
45872;BME280;32333;55.844;-3.210;2023-02-14T03:08:34;100685.16;;;2.04;100.00
45872;BME280;32333;55.844;-3.210;2023-02-14T03:11:04;100691.72;;;1.90;100.00
45872;BME280;32333;55.844;-3.210;2023-02-14T03:14:39;100688.08;;;2.50;100.00
45872;BME280;32333;55.844;-3.210;2023-02-14T03:17:16;100687.89;;;0.66;100.00
45872;BME280;32333;55.844;-3.210;2023-02-14T03:19:55;100675.28;;;1.67;100.00
45872;BME280;32333;55.844;-3.210;2023-02-14T03:22:42;100682.56;;;1.01;100.00
45872;BME280;32333;55.844;-3.210;2023-02-14T03:25:25;100677.77;;;1.54;100.00
45872;BME280;32333;55.844;-3.210;2023-02-14T03:28:00;100665.50;;;1.62;100.00
45872;BME280;32333;55.844;-3.210;2023-02-14T03:30:36;100671.21;;;1.74;100.00
45872;BME280;32333;55.844;-3.210;2023-02-14T03:33:07;100672.24;;;2.79;100.00
45872;BME280;32333;55.844;-3.210;2023-02-14T03:35:45;100674.22;;;2.43;100.00
45872;BME280;32333;55.844;-3.210;2023-02-14T03:38:19;100676.75;;;2.66;100.00
45872;BME280;32333;55.844;-3.210;2023-02-14T03:40:51;100663.19;;;3.66;100.00
45872;BME280;32333;55.844;-3.210;2023-02-14T03:44:37;100653.37;;;2.56;100.00
45872;BME280;32333;55.844;-3.210;2023-02-14T03:47:08;100660.69;;;2.08;100.00
45872;BME280;32333;55.844;-3.210;2023-02-14T03:49:42;100667.55;;;0.84;100.00
45872;BME280;32333;55.844;-3.210;2023-02-14T03:52:12;100652.25;;;1.68;100.00
45872;BME280;32333;55.844;-3.210;2023-02-14T03:54:40;100647.39;;;1.05;100.00
45872;BME280;32333;55.844;-3.210;2023-02-14T03:57:14;100657.67;;;1.02;100.00
45872;BME280;32333;55.844;-3.210;2023-02-14T03:59:44;100665.43;;;0.04;100.00
45872;BME280;32333;55.844;-3.210;2023-02-14T04:02:16;100640.34;;;2.51;100.00
45872;BME280;32333;55.844;-3.210;2023-02-14T04:04:48;100638.09;;;2.24;100.00
45872;BME280;32333;55.844;-3.210;2023-02-14T04:07:20;100617.55;;;1.40;100.00
45872;BME280;32333;55.844;-3.210;2023-02-14T04:09:50;100609.87;;;0.75;100.00
45872;BME280;32333;55.844;-3.210;2023-02-14T04:14:36;100625.27;;;0.48;100.00
45872;BME280;32333;55.844;-3.210;2023-02-14T04:17:04;100632.95;;;1.57;100.00
45872;BME280;32333;55.844;-3.210;2023-02-14T04:19:32;100649.92;;;0.48;100.00
45872;BME280;32333;55.844;-3.210;2023-02-14T04:22:00;100653.68;;;0.59;100.00
45872;BME280;32333;55.844;-3.210;2023-02-14T04:24:28;100645.68;;;1.79;100.00
45872;BME280;32333;55.844;-3.210;2023-02-14T04:26:56;100621.02;;;2.38;100.00
45872;BME280;32333;55.844;-3.210;2023-02-14T04:29:25;100644.13;;;2.04;100.00
45872;BME280;32333;55.844;-3.210;2023-02-14T04:31:53;100635.94;;;2.66;100.00
45872;BME280;32333;55.844;-3.210;2023-02-14T04:34:20;100620.78;;;2.61;100.00
45872;BME280;32333;55.844;-3.210;2023-02-14T04:36:48;100647.84;;;1.28;100.00
45872;BME280;32333;55.844;-3.210;2023-02-14T04:39:15;100638.66;;;2.39;100.00
45872;BME280;32333;55.844;-3.210;2023-02-14T04:41:43;100631.52;;;3.33;100.00
45872;BME280;32333;55.844;-3.210;2023-02-14T04:44:35;100637.28;;;2.70;100.00
45872;BME280;32333;55.844;-3.210;2023-02-14T04:47:04;100624.99;;;3.03;100.00
45872;BME280;32333;55.844;-3.210;2023-02-14T04:49:32;100605.57;;;2.86;100.00
45872;BME280;32333;55.844;-3.210;2023-02-14T04:52:02;100620.42;;;2.05;100.00
45872;BME280;32333;55.844;-3.210;2023-02-14T04:54:29;100607.25;;;1.12;100.00
45872;BME280;32333;55.844;-3.210;2023-02-14T04:56:57;100605.91;;;1.69;100.00
45872;BME280;32333;55.844;-3.210;2023-02-14T04:59:25;100609.45;;;1.47;100.00
45872;BME280;32333;55.844;-3.210;2023-02-14T05:01:53;100606.82;;;1.35;100.00
45872;BME280;32333;55.844;-3.210;2023-02-14T05:04:20;100601.69;;;1.91;100.00
45872;BME280;32333;55.844;-3.210;2023-02-14T05:06:48;100586.75;;;0.76;100.00
45872;BME280;32333;55.844;-3.210;2023-02-14T05:09:15;100587.74;;;1.36;100.00
45872;BME280;32333;55.844;-3.210;2023-02-14T05:11:43;100587.59;;;1.52;100.00
45872;BME280;32333;55.844;-3.210;2023-02-14T05:14:34;100616.38;;;-1.06;100.00
45872;BME280;32333;55.844;-3.210;2023-02-14T05:17:02;100611.07;;;0.48;100.00
45872;BME280;32333;55.844;-3.210;2023-02-14T05:19:30;100590.39;;;1.80;100.00
45872;BME280;32333;55.844;-3.210;2023-02-14T05:21:57;100587.48;;;1.28;100.00
45872;BME280;32333;55.844;-3.210;2023-02-14T05:24:25;100588.00;;;1.70;100.00
45872;BME280;32333;55.844;-3.210;2023-02-14T05:26:53;100583.60;;;2.04;100.00
45872;BME280;32333;55.844;-3.210;2023-02-14T05:29:20;100599.75;;;0.51;100.00
45872;BME280;32333;55.844;-3.210;2023-02-14T05:31:47;100616.74;;;1.37;100.00
45872;BME280;32333;55.844;-3.210;2023-02-14T05:34:14;100631.31;;;0.32;100.00
45872;BME280;32333;55.844;-3.210;2023-02-14T05:36:42;100627.04;;;0.08;100.00
45872;BME280;32333;55.844;-3.210;2023-02-14T05:39:10;100603.30;;;2.06;100.00
45872;BME280;32333;55.844;-3.210;2023-02-14T05:41:37;100607.47;;;1.34;100.00
45872;BME280;32333;55.844;-3.210;2023-02-14T05:44:34;100606.49;;;2.59;100.00
45872;BME280;32333;55.844;-3.210;2023-02-14T05:47:02;100621.78;;;0.98;100.00
45872;BME280;32333;55.844;-3.210;2023-02-14T05:49:30;100610.21;;;2.43;100.00
45872;BME280;32333;55.844;-3.210;2023-02-14T05:51:57;100603.99;;;2.10;100.00
45872;BME280;32333;55.844;-3.210;2023-02-14T05:54:24;100595.71;;;0.51;100.00
45872;BME280;32333;55.844;-3.210;2023-02-14T05:56:53;100613.23;;;-0.65;100.00
45872;BME280;32333;55.844;-3.210;2023-02-14T05:59:21;100602.10;;;1.00;100.00
45872;BME280;32333;55.844;-3.210;2023-02-14T06:01:49;100592.71;;;1.97;100.00
45872;BME280;32333;55.844;-3.210;2023-02-14T06:04:16;100576.22;;;2.32;100.00
45872;BME280;32333;55.844;-3.210;2023-02-14T06:06:44;100578.51;;;2.26;100.00
45872;BME280;32333;55.844;-3.210;2023-02-14T06:09:13;100590.75;;;0.27;100.00
45872;BME280;32333;55.844;-3.210;2023-02-14T06:11:42;100582.40;;;1.33;100.00
45872;BME280;32333;55.844;-3.210;2023-02-14T06:14:36;100618.98;;;0.72;100.00
45872;BME280;32333;55.844;-3.210;2023-02-14T06:17:04;100634.03;;;0.77;100.00
45872;BME280;32333;55.844;-3.210;2023-02-14T06:19:32;100611.64;;;-0.51;100.00
45872;BME280;32333;55.844;-3.210;2023-02-14T06:22:00;100587.25;;;1.47;100.00
45872;BME280;32333;55.844;-3.210;2023-02-14T06:24:29;100595.17;;;0.64;100.00
45872;BME280;32333;55.844;-3.210;2023-02-14T06:26:59;100596.07;;;0.92;100.00
45872;BME280;32333;55.844;-3.210;2023-02-14T06:29:27;100582.39;;;2.45;100.00
45872;BME280;32333;55.844;-3.210;2023-02-14T06:31:54;100577.51;;;0.63;100.00
45872;BME280;32333;55.844;-3.210;2023-02-14T06:34:21;100576.60;;;1.84;100.00
45872;BME280;32333;55.844;-3.210;2023-02-14T06:36:50;100587.61;;;1.20;100.00
45872;BME280;32333;55.844;-3.210;2023-02-14T06:39:19;100583.13;;;2.12;100.00
45872;BME280;32333;55.844;-3.210;2023-02-14T06:41:48;100590.28;;;1.49;100.00
45872;BME280;32333;55.844;-3.210;2023-02-14T06:44:35;100591.21;;;1.51;100.00
45872;BME280;32333;55.844;-3.210;2023-02-14T06:47:03;100594.99;;;0.15;100.00
45872;BME280;32333;55.844;-3.210;2023-02-14T06:49:30;100576.24;;;1.25;100.00
45872;BME280;32333;55.844;-3.210;2023-02-14T06:51:57;100575.01;;;0.62;100.00
45872;BME280;32333;55.844;-3.210;2023-02-14T06:54:26;100567.47;;;1.46;100.00
45872;BME280;32333;55.844;-3.210;2023-02-14T06:56:57;100565.42;;;0.85;100.00
45872;BME280;32333;55.844;-3.210;2023-02-14T06:59:25;100568.94;;;1.38;100.00
45872;BME280;32333;55.844;-3.210;2023-02-14T07:01:54;100575.96;;;2.12;100.00
45872;BME280;32333;55.844;-3.210;2023-02-14T07:04:23;100580.28;;;0.83;100.00
45872;BME280;32333;55.844;-3.210;2023-02-14T07:08:31;100572.89;;;0.79;100.00
45872;BME280;32333;55.844;-3.210;2023-02-14T07:10:59;100568.67;;;0.69;100.00
45872;BME280;32333;55.844;-3.210;2023-02-14T07:14:34;100570.51;;;2.13;100.00
45872;BME280;32333;55.844;-3.210;2023-02-14T07:17:02;100572.52;;;0.74;100.00
45872;BME280;32333;55.844;-3.210;2023-02-14T07:19:29;100584.04;;;0.49;100.00
45872;BME280;32333;55.844;-3.210;2023-02-14T07:21:58;100577.39;;;1.13;100.00
45872;BME280;32333;55.844;-3.210;2023-02-14T07:24:27;100591.01;;;-0.97;100.00
45872;BME280;32333;55.844;-3.210;2023-02-14T07:26:54;100592.00;;;1.28;100.00
45872;BME280;32333;55.844;-3.210;2023-02-14T07:29:23;100586.45;;;1.88;100.00
45872;BME280;32333;55.844;-3.210;2023-02-14T07:31:50;100576.25;;;1.92;100.00
45872;BME280;32333;55.844;-3.210;2023-02-14T07:34:19;100569.90;;;1.59;100.00
45872;BME280;32333;55.844;-3.210;2023-02-14T07:36:48;100572.94;;;1.68;100.00
45872;BME280;32333;55.844;-3.210;2023-02-14T07:39:16;100568.26;;;2.70;100.00
45872;BME280;32333;55.844;-3.210;2023-02-14T07:41:43;100572.28;;;2.43;100.00
45872;BME280;32333;55.844;-3.210;2023-02-14T07:44:36;100572.43;;;1.42;100.00
45872;BME280;32333;55.844;-3.210;2023-02-14T07:47:05;100588.71;;;-0.09;100.00
45872;BME280;32333;55.844;-3.210;2023-02-14T07:49:33;100591.31;;;0.33;100.00
45872;BME280;32333;55.844;-3.210;2023-02-14T07:52:02;100590.32;;;-0.44;100.00
45872;BME280;32333;55.844;-3.210;2023-02-14T07:54:29;100589.45;;;0.50;100.00
45872;BME280;32333;55.844;-3.210;2023-02-14T07:56:56;100581.67;;;1.79;100.00
45872;BME280;32333;55.844;-3.210;2023-02-14T07:59:24;100579.02;;;1.63;100.00
45872;BME280;32333;55.844;-3.210;2023-02-14T08:01:52;100580.69;;;1.85;100.00
45872;BME280;32333;55.844;-3.210;2023-02-14T08:04:20;100587.42;;;2.45;100.00
45872;BME280;32333;55.844;-3.210;2023-02-14T08:06:47;100590.46;;;1.51;100.00
45872;BME280;32333;55.844;-3.210;2023-02-14T08:09:15;100581.85;;;1.75;100.00
45872;BME280;32333;55.844;-3.210;2023-02-14T08:11:42;100582.47;;;1.49;100.00
45872;BME280;32333;55.844;-3.210;2023-02-14T08:14:35;100591.32;;;0.72;100.00
45872;BME280;32333;55.844;-3.210;2023-02-14T08:17:04;100592.09;;;1.70;100.00
45872;BME280;32333;55.844;-3.210;2023-02-14T08:19:32;100592.65;;;1.22;100.00
45872;BME280;32333;55.844;-3.210;2023-02-14T08:22:00;100592.75;;;3.02;100.00
45872;BME280;32333;55.844;-3.210;2023-02-14T08:24:29;100595.82;;;2.57;100.00
45872;BME280;32333;55.844;-3.210;2023-02-14T08:26:57;100593.22;;;3.04;100.00
45872;BME280;32333;55.844;-3.210;2023-02-14T08:29:27;100592.78;;;2.71;100.00
45872;BME280;32333;55.844;-3.210;2023-02-14T08:31:54;100594.50;;;2.35;100.00
45872;BME280;32333;55.844;-3.210;2023-02-14T08:34:23;100598.76;;;2.78;100.00
45872;BME280;32333;55.844;-3.210;2023-02-14T08:36:50;100591.51;;;2.71;100.00
45872;BME280;32333;55.844;-3.210;2023-02-14T08:39:17;100585.60;;;3.14;100.00
45872;BME280;32333;55.844;-3.210;2023-02-14T08:41:45;100576.86;;;3.36;100.00
45872;BME280;32333;55.844;-3.210;2023-02-14T08:44:35;100577.31;;;4.06;100.00
45872;BME280;32333;55.844;-3.210;2023-02-14T08:47:02;100575.02;;;3.81;100.00
45872;BME280;32333;55.844;-3.210;2023-02-14T08:49:30;100572.12;;;4.07;100.00
45872;BME280;32333;55.844;-3.210;2023-02-14T08:51:58;100566.99;;;4.62;100.00
45872;BME280;32333;55.844;-3.210;2023-02-14T08:54:27;100557.67;;;5.20;100.00
45872;BME280;32333;55.844;-3.210;2023-02-14T08:56:54;100558.44;;;3.30;100.00
45872;BME280;32333;55.844;-3.210;2023-02-14T08:59:21;100551.11;;;4.66;100.00
45872;BME280;32333;55.844;-3.210;2023-02-14T09:01:48;100550.33;;;5.83;100.00
45872;BME280;32333;55.844;-3.210;2023-02-14T09:04:16;100549.91;;;5.57;100.00
45872;BME280;32333;55.844;-3.210;2023-02-14T09:06:43;100547.56;;;5.82;100.00
45872;BME280;32333;55.844;-3.210;2023-02-14T09:09:12;100548.39;;;6.79;100.00
45872;BME280;32333;55.844;-3.210;2023-02-14T09:11:39;100545.74;;;6.36;100.00
45872;BME280;32333;55.844;-3.210;2023-02-14T09:14:37;100543.62;;;4.52;100.00
45872;BME280;32333;55.844;-3.210;2023-02-14T09:17:06;100540.63;;;6.98;100.00
45872;BME280;32333;55.844;-3.210;2023-02-14T09:19:35;100547.37;;;7.07;100.00
45872;BME280;32333;55.844;-3.210;2023-02-14T09:22:05;100545.52;;;5.67;100.00
45872;BME280;32333;55.844;-3.210;2023-02-14T09:24:36;100554.85;;;5.74;100.00
45872;BME280;32333;55.844;-3.210;2023-02-14T09:27:05;100558.98;;;6.04;100.00
45872;BME280;32333;55.844;-3.210;2023-02-14T09:29:33;100554.29;;;8.06;100.00
45872;BME280;32333;55.844;-3.210;2023-02-14T09:32:01;100555.25;;;7.76;100.00
45872;BME280;32333;55.844;-3.210;2023-02-14T09:34:31;100557.06;;;9.00;100.00
45872;BME280;32333;55.844;-3.210;2023-02-14T09:37:00;100554.52;;;7.14;100.00
45872;BME280;32333;55.844;-3.210;2023-02-14T09:39:43;100552.06;;;5.94;100.00
45872;BME280;32333;55.844;-3.210;2023-02-14T09:44:38;100546.72;;;9.16;89.87
45872;BME280;32333;55.844;-3.210;2023-02-14T09:47:17;100542.08;;;9.15;92.39
45872;BME280;32333;55.844;-3.210;2023-02-14T09:49:46;100536.98;;;9.79;89.55
45872;BME280;32333;55.844;-3.210;2023-02-14T09:52:17;100538.05;;;8.29;100.00
45872;BME280;32333;55.844;-3.210;2023-02-14T09:54:52;100528.71;;;9.20;99.77
45872;BME280;32333;55.844;-3.210;2023-02-14T09:57:26;100522.27;;;9.07;97.14
45872;BME280;32333;55.844;-3.210;2023-02-14T10:00:04;100518.14;;;10.57;85.79
45872;BME280;32333;55.844;-3.210;2023-02-14T10:02:43;100518.44;;;8.96;99.54
45872;BME280;32333;55.844;-3.210;2023-02-14T10:05:17;100523.87;;;9.53;90.14
45872;BME280;32333;55.844;-3.210;2023-02-14T10:07:55;100528.93;;;9.28;91.82
45872;BME280;32333;55.844;-3.210;2023-02-14T10:10:27;100534.21;;;9.66;90.44
45872;BME280;32333;55.844;-3.210;2023-02-14T10:14:35;100525.35;;;10.49;89.43
45872;BME280;32333;55.844;-3.210;2023-02-14T10:17:07;100530.07;;;11.51;80.78
45872;BME280;32333;55.844;-3.210;2023-02-14T10:19:38;100528.44;;;13.07;76.11
45872;BME280;32333;55.844;-3.210;2023-02-14T10:22:12;100530.89;;;12.29;76.47
45872;BME280;32333;55.844;-3.210;2023-02-14T10:24:46;100536.52;;;11.19;76.39
45872;BME280;32333;55.844;-3.210;2023-02-14T10:27:28;100536.38;;;11.17;83.83
45872;BME280;32333;55.844;-3.210;2023-02-14T10:29:59;100534.22;;;12.16;77.01
45872;BME280;32333;55.844;-3.210;2023-02-14T10:32:30;100525.58;;;12.10;78.40
45872;BME280;32333;55.844;-3.210;2023-02-14T10:35:06;100534.88;;;9.89;85.15
45872;BME280;32333;55.844;-3.210;2023-02-14T10:37:54;100532.65;;;11.17;80.53
45872;BME280;32333;55.844;-3.210;2023-02-14T10:40:54;100534.03;;;10.21;84.21
45872;BME280;32333;55.844;-3.210;2023-02-14T10:44:44;100516.60;;;10.28;85.05
45872;BME280;32333;55.844;-3.210;2023-02-14T10:47:24;100531.13;;;9.93;92.83
45872;BME280;32333;55.844;-3.210;2023-02-14T10:49:58;100521.84;;;10.71;87.81
45872;BME280;32333;55.844;-3.210;2023-02-14T10:52:33;100519.94;;;10.34;91.07
45872;BME280;32333;55.844;-3.210;2023-02-14T10:55:11;100515.95;;;10.46;87.01
45872;BME280;32333;55.844;-3.210;2023-02-14T10:57:43;100512.21;;;10.52;86.41
45872;BME280;32333;55.844;-3.210;2023-02-14T11:00:21;100512.59;;;10.39;83.72
45872;BME280;32333;55.844;-3.210;2023-02-14T11:02:55;100502.98;;;9.95;85.15
45872;BME280;32333;55.844;-3.210;2023-02-14T11:05:26;100500.16;;;10.94;83.19
45872;BME280;32333;55.844;-3.210;2023-02-14T11:08:00;100494.76;;;11.12;81.18
45872;BME280;32333;55.844;-3.210;2023-02-14T11:10:31;100495.93;;;10.87;82.72
45872;BME280;32333;55.844;-3.210;2023-02-14T11:14:38;100485.40;;;9.43;86.26
45872;BME280;32333;55.844;-3.210;2023-02-14T11:17:26;100476.29;;;11.73;79.14
45872;BME280;32333;55.844;-3.210;2023-02-14T11:19:58;100479.37;;;11.93;81.17
45872;BME280;32333;55.844;-3.210;2023-02-14T11:22:29;100483.50;;;11.44;81.68
45872;BME280;32333;55.844;-3.210;2023-02-14T11:25:03;100487.06;;;9.87;87.43
45872;BME280;32333;55.844;-3.210;2023-02-14T11:27:32;100487.86;;;10.41;91.45
45872;BME280;32333;55.844;-3.210;2023-02-14T11:29:59;100483.74;;;9.69;91.76
45872;BME280;32333;55.844;-3.210;2023-02-14T11:32:29;100482.48;;;9.17;96.62
45872;BME280;32333;55.844;-3.210;2023-02-14T11:35:01;100477.48;;;9.04;100.00
45872;BME280;32333;55.844;-3.210;2023-02-14T11:37:31;100480.55;;;9.03;100.00
45872;BME280;32333;55.844;-3.210;2023-02-14T11:40:04;100483.27;;;9.20;100.00
45872;BME280;32333;55.844;-3.210;2023-02-14T11:44:36;100475.82;;;9.52;100.00
45872;BME280;32333;55.844;-3.210;2023-02-14T11:47:37;100475.87;;;9.48;100.00
45872;BME280;32333;55.844;-3.210;2023-02-14T11:50:19;100472.06;;;8.64;100.00
45872;BME280;32333;55.844;-3.210;2023-02-14T11:52:50;100473.30;;;8.72;100.00
45872;BME280;32333;55.844;-3.210;2023-02-14T11:55:25;100459.94;;;8.36;100.00
45872;BME280;32333;55.844;-3.210;2023-02-14T11:57:54;100455.40;;;7.64;100.00
45872;BME280;32333;55.844;-3.210;2023-02-14T12:00:24;100452.62;;;7.61;100.00
45872;BME280;32333;55.844;-3.210;2023-02-14T12:02:53;100452.24;;;6.92;100.00
45872;BME280;32333;55.844;-3.210;2023-02-14T12:05:26;100446.64;;;7.35;100.00
45872;BME280;32333;55.844;-3.210;2023-02-14T12:07:55;100447.72;;;7.82;100.00
45872;BME280;32333;55.844;-3.210;2023-02-14T12:10:27;100447.90;;;7.65;100.00
45872;BME280;32333;55.844;-3.210;2023-02-14T12:14:35;100439.41;;;8.16;100.00
45872;BME280;32333;55.844;-3.210;2023-02-14T12:17:10;100432.26;;;8.35;100.00
45872;BME280;32333;55.844;-3.210;2023-02-14T12:19:48;100427.26;;;8.29;100.00
45872;BME280;32333;55.844;-3.210;2023-02-14T12:22:19;100431.99;;;7.94;100.00
45872;BME280;32333;55.844;-3.210;2023-02-14T12:24:55;100430.31;;;8.38;100.00
45872;BME280;32333;55.844;-3.210;2023-02-14T12:27:28;100417.80;;;8.51;100.00
45872;BME280;32333;55.844;-3.210;2023-02-14T12:30:02;100419.09;;;8.70;100.00
45872;BME280;32333;55.844;-3.210;2023-02-14T12:32:31;100419.46;;;8.68;100.00
45872;BME280;32333;55.844;-3.210;2023-02-14T12:35:05;100420.09;;;8.30;100.00
45872;BME280;32333;55.844;-3.210;2023-02-14T12:37:49;100412.53;;;7.35;100.00
45872;BME280;32333;55.844;-3.210;2023-02-14T12:40:29;100416.50;;;7.62;100.00
45872;BME280;32333;55.844;-3.210;2023-02-14T12:44:41;100412.43;;;7.39;100.00
45872;BME280;32333;55.844;-3.210;2023-02-14T12:47:22;100404.05;;;7.72;100.00
45872;BME280;32333;55.844;-3.210;2023-02-14T13:14:43;100381.14;;;8.21;100.00
45872;BME280;32333;55.844;-3.210;2023-02-14T13:17:22;100369.37;;;7.83;100.00
45872;BME280;32333;55.844;-3.210;2023-02-14T13:20:02;100364.37;;;7.41;100.00
45872;BME280;32333;55.844;-3.210;2023-02-14T13:22:34;100359.63;;;7.59;100.00
45872;BME280;32333;55.844;-3.210;2023-02-14T13:25:05;100356.83;;;7.45;100.00
45872;BME280;32333;55.844;-3.210;2023-02-14T13:27:40;100357.16;;;7.74;100.00
45872;BME280;32333;55.844;-3.210;2023-02-14T13:30:15;100358.27;;;7.29;100.00
45872;BME280;32333;55.844;-3.210;2023-02-14T13:32:48;100359.56;;;7.51;100.00
45872;BME280;32333;55.844;-3.210;2023-02-14T13:35:36;100372.75;;;7.86;100.00
45872;BME280;32333;55.844;-3.210;2023-02-14T13:38:06;100362.87;;;6.77;100.00
45872;BME280;32333;55.844;-3.210;2023-02-14T13:40:35;100359.38;;;6.78;100.00
45872;BME280;32333;55.844;-3.210;2023-02-14T13:44:44;100361.34;;;6.98;100.00
45872;BME280;32333;55.844;-3.210;2023-02-14T13:47:17;100361.78;;;6.89;100.00
45872;BME280;32333;55.844;-3.210;2023-02-14T13:49:48;100361.54;;;6.65;100.00
45872;BME280;32333;55.844;-3.210;2023-02-14T13:52:49;100361.92;;;7.33;100.00
45872;BME280;32333;55.844;-3.210;2023-02-14T13:55:20;100358.42;;;6.95;100.00
45872;BME280;32333;55.844;-3.210;2023-02-14T13:58:00;100354.07;;;6.90;100.00
45872;BME280;32333;55.844;-3.210;2023-02-14T14:00:39;100355.82;;;6.72;100.00
45872;BME280;32333;55.844;-3.210;2023-02-14T14:03:12;100366.75;;;7.00;100.00